sensor_id;sensor_type;location;lat;lon;timestamp;P1;durP1;ratioP1;P2;durP2;ratioP2
21999;SDS011;11164;48.818;2.322;2023-02-04T00:01:14;12.05;;;5.13;;
21999;SDS011;11164;48.818;2.322;2023-02-04T00:03:40;11.05;;;4.43;;
21999;SDS011;11164;48.818;2.322;2023-02-04T00:06:05;11.55;;;4.88;;
21999;SDS011;11164;48.818;2.322;2023-02-04T00:08:31;10.63;;;4.38;;
21999;SDS011;11164;48.818;2.322;2023-02-04T00:10:56;12.55;;;5.28;;
21999;SDS011;11164;48.818;2.322;2023-02-04T00:13:21;15.90;;;4.80;;
21999;SDS011;11164;48.818;2.322;2023-02-04T00:15:47;9.40;;;4.85;;
21999;SDS011;11164;48.818;2.322;2023-02-04T00:18:12;10.50;;;5.30;;
21999;SDS011;11164;48.818;2.322;2023-02-04T00:20:37;10.27;;;5.22;;
21999;SDS011;11164;48.818;2.322;2023-02-04T00:23:03;12.68;;;5.25;;
21999;SDS011;11164;48.818;2.322;2023-02-04T00:25:28;11.25;;;4.82;;
21999;SDS011;11164;48.818;2.322;2023-02-04T00:27:54;11.07;;;5.03;;
21999;SDS011;11164;48.818;2.322;2023-02-04T00:30:19;10.30;;;5.05;;
21999;SDS011;11164;48.818;2.322;2023-02-04T00:32:45;9.68;;;4.95;;
21999;SDS011;11164;48.818;2.322;2023-02-04T00:35:10;11.65;;;5.50;;
21999;SDS011;11164;48.818;2.322;2023-02-04T00:37:35;17.67;;;8.05;;
21999;SDS011;11164;48.818;2.322;2023-02-04T00:40:01;12.35;;;6.03;;
21999;SDS011;11164;48.818;2.322;2023-02-04T00:42:26;11.07;;;5.20;;
21999;SDS011;11164;48.818;2.322;2023-02-04T00:44:52;11.77;;;5.85;;
21999;SDS011;11164;48.818;2.322;2023-02-04T00:47:18;14.05;;;6.20;;
21999;SDS011;11164;48.818;2.322;2023-02-04T00:49:43;13.73;;;5.65;;
21999;SDS011;11164;48.818;2.322;2023-02-04T00:52:09;11.95;;;5.85;;
21999;SDS011;11164;48.818;2.322;2023-02-04T00:54:34;11.00;;;5.55;;
21999;SDS011;11164;48.818;2.322;2023-02-04T00:56:59;12.77;;;5.53;;
21999;SDS011;11164;48.818;2.322;2023-02-04T00:59:25;11.32;;;6.57;;
21999;SDS011;11164;48.818;2.322;2023-02-04T01:01:50;11.75;;;5.93;;
21999;SDS011;11164;48.818;2.322;2023-02-04T01:04:15;14.40;;;6.15;;
21999;SDS011;11164;48.818;2.322;2023-02-04T01:06:41;13.27;;;6.90;;
21999;SDS011;11164;48.818;2.322;2023-02-04T01:09:06;16.42;;;6.28;;
21999;SDS011;11164;48.818;2.322;2023-02-04T01:11:32;12.32;;;6.38;;
21999;SDS011;11164;48.818;2.322;2023-02-04T01:13:58;15.43;;;6.78;;
21999;SDS011;11164;48.818;2.322;2023-02-04T01:16:23;11.80;;;6.25;;
21999;SDS011;11164;48.818;2.322;2023-02-04T01:18:49;15.48;;;6.80;;
21999;SDS011;11164;48.818;2.322;2023-02-04T01:21:15;16.48;;;6.78;;
21999;SDS011;11164;48.818;2.322;2023-02-04T01:23:40;13.88;;;6.90;;
21999;SDS011;11164;48.818;2.322;2023-02-04T01:26:06;15.82;;;6.93;;
21999;SDS011;11164;48.818;2.322;2023-02-04T01:28:31;13.75;;;6.88;;
21999;SDS011;11164;48.818;2.322;2023-02-04T01:30:56;15.43;;;6.20;;
21999;SDS011;11164;48.818;2.322;2023-02-04T01:33:22;14.15;;;6.80;;
21999;SDS011;11164;48.818;2.322;2023-02-04T01:35:47;19.38;;;7.22;;
21999;SDS011;11164;48.818;2.322;2023-02-04T01:38:13;16.00;;;6.70;;
21999;SDS011;11164;48.818;2.322;2023-02-04T01:40:38;13.77;;;6.70;;
21999;SDS011;11164;48.818;2.322;2023-02-04T01:43:05;15.77;;;6.82;;
21999;SDS011;11164;48.818;2.322;2023-02-04T01:45:31;16.33;;;7.28;;
21999;SDS011;11164;48.818;2.322;2023-02-04T01:47:58;16.48;;;7.35;;
21999;SDS011;11164;48.818;2.322;2023-02-04T01:50:24;16.88;;;7.07;;
21999;SDS011;11164;48.818;2.322;2023-02-04T01:52:49;18.67;;;7.38;;
21999;SDS011;11164;48.818;2.322;2023-02-04T01:55:19;16.27;;;7.03;;
21999;SDS011;11164;48.818;2.322;2023-02-04T01:57:48;17.70;;;7.57;;
21999;SDS011;11164;48.818;2.322;2023-02-04T02:00:18;15.32;;;7.35;;
21999;SDS011;11164;48.818;2.322;2023-02-04T02:02:49;14.45;;;7.00;;
21999;SDS011;11164;48.818;2.322;2023-02-04T02:05:17;17.90;;;7.45;;
21999;SDS011;11164;48.818;2.322;2023-02-04T02:07:46;18.02;;;7.72;;
21999;SDS011;11164;48.818;2.322;2023-02-04T02:10:13;14.50;;;6.85;;
21999;SDS011;11164;48.818;2.322;2023-02-04T02:12:40;18.40;;;7.88;;
21999;SDS011;11164;48.818;2.322;2023-02-04T02:15:06;17.98;;;8.05;;
21999;SDS011;11164;48.818;2.322;2023-02-04T02:17:33;14.85;;;7.38;;
21999;SDS011;11164;48.818;2.322;2023-02-04T02:19:58;18.00;;;8.60;;
21999;SDS011;11164;48.818;2.322;2023-02-04T02:22:39;17.15;;;8.77;;
21999;SDS011;11164;48.818;2.322;2023-02-04T02:25:08;19.42;;;8.25;;
21999;SDS011;11164;48.818;2.322;2023-02-04T02:27:37;19.20;;;7.95;;
21999;SDS011;11164;48.818;2.322;2023-02-04T02:30:03;16.70;;;7.97;;
21999;SDS011;11164;48.818;2.322;2023-02-04T02:32:30;18.83;;;8.63;;
21999;SDS011;11164;48.818;2.322;2023-02-04T02:34:55;18.10;;;8.52;;
21999;SDS011;11164;48.818;2.322;2023-02-04T02:37:20;18.65;;;8.73;;
21999;SDS011;11164;48.818;2.322;2023-02-04T02:39:46;22.38;;;9.38;;
21999;SDS011;11164;48.818;2.322;2023-02-04T02:42:12;17.92;;;9.40;;
21999;SDS011;11164;48.818;2.322;2023-02-04T02:44:41;23.23;;;9.13;;
21999;SDS011;11164;48.818;2.322;2023-02-04T02:47:11;20.02;;;9.93;;
21999;SDS011;11164;48.818;2.322;2023-02-04T02:49:39;20.15;;;8.75;;
21999;SDS011;11164;48.818;2.322;2023-02-04T02:52:07;22.13;;;9.30;;
21999;SDS011;11164;48.818;2.322;2023-02-04T02:54:37;20.60;;;9.13;;
21999;SDS011;11164;48.818;2.322;2023-02-04T02:57:04;21.58;;;9.30;;
21999;SDS011;11164;48.818;2.322;2023-02-04T02:59:36;21.27;;;8.70;;
21999;SDS011;11164;48.818;2.322;2023-02-04T03:02:02;18.77;;;9.48;;
21999;SDS011;11164;48.818;2.322;2023-02-04T03:04:29;21.48;;;9.13;;
21999;SDS011;11164;48.818;2.322;2023-02-04T03:06:57;16.92;;;8.80;;
21999;SDS011;11164;48.818;2.322;2023-02-04T03:09:24;20.10;;;9.30;;
21999;SDS011;11164;48.818;2.322;2023-02-04T03:11:51;21.60;;;8.90;;
21999;SDS011;11164;48.818;2.322;2023-02-04T03:14:16;22.80;;;8.90;;
21999;SDS011;11164;48.818;2.322;2023-02-04T03:16:43;20.02;;;8.88;;
21999;SDS011;11164;48.818;2.322;2023-02-04T03:19:09;22.30;;;9.18;;
21999;SDS011;11164;48.818;2.322;2023-02-04T03:21:35;24.83;;;9.52;;
21999;SDS011;11164;48.818;2.322;2023-02-04T03:24:01;24.52;;;9.02;;
21999;SDS011;11164;48.818;2.322;2023-02-04T03:26:26;18.83;;;9.27;;
21999;SDS011;11164;48.818;2.322;2023-02-04T03:28:52;25.77;;;9.52;;
21999;SDS011;11164;48.818;2.322;2023-02-04T03:31:18;20.10;;;8.52;;
21999;SDS011;11164;48.818;2.322;2023-02-04T03:33:44;24.10;;;9.52;;
21999;SDS011;11164;48.818;2.322;2023-02-04T03:36:09;19.83;;;8.88;;
21999;SDS011;11164;48.818;2.322;2023-02-04T03:38:35;20.02;;;9.20;;
21999;SDS011;11164;48.818;2.322;2023-02-04T03:41:00;17.20;;;8.38;;
21999;SDS011;11164;48.818;2.322;2023-02-04T03:43:26;21.02;;;9.05;;
21999;SDS011;11164;48.818;2.322;2023-02-04T03:45:51;21.60;;;8.80;;
21999;SDS011;11164;48.818;2.322;2023-02-04T03:48:16;17.70;;;8.15;;
21999;SDS011;11164;48.818;2.322;2023-02-04T03:50:42;19.05;;;8.98;;
21999;SDS011;11164;48.818;2.322;2023-02-04T03:53:07;19.30;;;9.18;;
21999;SDS011;11164;48.818;2.322;2023-02-04T03:55:33;23.08;;;9.50;;
21999;SDS011;11164;48.818;2.322;2023-02-04T03:57:58;20.73;;;9.00;;
21999;SDS011;11164;48.818;2.322;2023-02-04T04:00:24;24.90;;;8.70;;
21999;SDS011;11164;48.818;2.322;2023-02-04T04:02:49;21.65;;;8.52;;
21999;SDS011;11164;48.818;2.322;2023-02-04T04:05:15;21.45;;;9.05;;
21999;SDS011;11164;48.818;2.322;2023-02-04T04:07:41;21.00;;;8.95;;
21999;SDS011;11164;48.818;2.322;2023-02-04T04:10:06;18.05;;;9.27;;
21999;SDS011;11164;48.818;2.322;2023-02-04T04:12:32;21.13;;;9.15;;
21999;SDS011;11164;48.818;2.322;2023-02-04T04:14:57;20.02;;;9.05;;
21999;SDS011;11164;48.818;2.322;2023-02-04T04:17:22;20.38;;;8.55;;
21999;SDS011;11164;48.818;2.322;2023-02-04T04:19:48;17.42;;;8.45;;
21999;SDS011;11164;48.818;2.322;2023-02-04T04:22:13;21.45;;;9.05;;
21999;SDS011;11164;48.818;2.322;2023-02-04T04:24:39;18.77;;;8.52;;
21999;SDS011;11164;48.818;2.322;2023-02-04T04:27:05;25.00;;;7.95;;
21999;SDS011;11164;48.818;2.322;2023-02-04T04:29:31;19.63;;;8.18;;
21999;SDS011;11164;48.818;2.322;2023-02-04T04:31:56;19.10;;;8.68;;
21999;SDS011;11164;48.818;2.322;2023-02-04T04:34:22;23.75;;;8.80;;
21999;SDS011;11164;48.818;2.322;2023-02-04T04:36:47;17.42;;;8.40;;
21999;SDS011;11164;48.818;2.322;2023-02-04T04:39:12;19.10;;;8.75;;
21999;SDS011;11164;48.818;2.322;2023-02-04T04:41:38;18.08;;;8.63;;
21999;SDS011;11164;48.818;2.322;2023-02-04T04:44:03;20.70;;;8.57;;
21999;SDS011;11164;48.818;2.322;2023-02-04T04:46:28;17.92;;;7.50;;
21999;SDS011;11164;48.818;2.322;2023-02-04T04:48:54;18.20;;;8.63;;
21999;SDS011;11164;48.818;2.322;2023-02-04T04:51:19;22.23;;;8.82;;
21999;SDS011;11164;48.818;2.322;2023-02-04T04:53:45;17.83;;;7.63;;
21999;SDS011;11164;48.818;2.322;2023-02-04T04:56:10;22.45;;;8.80;;
21999;SDS011;11164;48.818;2.322;2023-02-04T04:58:35;19.00;;;7.78;;
21999;SDS011;11164;48.818;2.322;2023-02-04T05:01:01;24.98;;;8.50;;
21999;SDS011;11164;48.818;2.322;2023-02-04T05:03:26;18.63;;;7.55;;
21999;SDS011;11164;48.818;2.322;2023-02-04T05:05:51;23.33;;;7.93;;
21999;SDS011;11164;48.818;2.322;2023-02-04T05:08:17;18.23;;;7.18;;
21999;SDS011;11164;48.818;2.322;2023-02-04T05:10:44;17.10;;;7.30;;
21999;SDS011;11164;48.818;2.322;2023-02-04T05:13:10;19.75;;;7.55;;
21999;SDS011;11164;48.818;2.322;2023-02-04T05:15:36;16.40;;;7.63;;
21999;SDS011;11164;48.818;2.322;2023-02-04T05:18:01;17.58;;;6.60;;
21999;SDS011;11164;48.818;2.322;2023-02-04T05:20:27;15.77;;;7.53;;
21999;SDS011;11164;48.818;2.322;2023-02-04T05:22:52;16.05;;;6.93;;
21999;SDS011;11164;48.818;2.322;2023-02-04T05:25:20;17.23;;;7.15;;
21999;SDS011;11164;48.818;2.322;2023-02-04T05:27:46;17.90;;;7.07;;
21999;SDS011;11164;48.818;2.322;2023-02-04T05:30:12;17.00;;;6.57;;
21999;SDS011;11164;48.818;2.322;2023-02-04T05:32:38;19.60;;;8.05;;
21999;SDS011;11164;48.818;2.322;2023-02-04T05:35:04;18.15;;;6.60;;
21999;SDS011;11164;48.818;2.322;2023-02-04T05:37:30;14.05;;;6.55;;
21999;SDS011;11164;48.818;2.322;2023-02-04T05:39:56;15.30;;;6.85;;
21999;SDS011;11164;48.818;2.322;2023-02-04T05:42:21;15.48;;;6.72;;
21999;SDS011;11164;48.818;2.322;2023-02-04T05:44:46;16.92;;;6.78;;
21999;SDS011;11164;48.818;2.322;2023-02-04T05:47:12;18.52;;;6.97;;
21999;SDS011;11164;48.818;2.322;2023-02-04T05:49:38;14.38;;;6.55;;
21999;SDS011;11164;48.818;2.322;2023-02-04T05:52:03;12.73;;;6.32;;
21999;SDS011;11164;48.818;2.322;2023-02-04T05:54:29;17.52;;;6.93;;
21999;SDS011;11164;48.818;2.322;2023-02-04T05:56:54;18.90;;;7.05;;
21999;SDS011;11164;48.818;2.322;2023-02-04T05:59:20;15.02;;;6.95;;
21999;SDS011;11164;48.818;2.322;2023-02-04T06:01:45;17.58;;;6.43;;
21999;SDS011;11164;48.818;2.322;2023-02-04T06:04:10;16.08;;;6.65;;
21999;SDS011;11164;48.818;2.322;2023-02-04T06:06:36;13.75;;;6.97;;
21999;SDS011;11164;48.818;2.322;2023-02-04T06:09:01;17.48;;;6.50;;
21999;SDS011;11164;48.818;2.322;2023-02-04T06:11:27;14.98;;;6.72;;
21999;SDS011;11164;48.818;2.322;2023-02-04T06:13:52;11.25;;;5.90;;
21999;SDS011;11164;48.818;2.322;2023-02-04T06:16:18;15.73;;;6.95;;
21999;SDS011;11164;48.818;2.322;2023-02-04T06:18:43;14.05;;;6.20;;
21999;SDS011;11164;48.818;2.322;2023-02-04T06:21:09;16.77;;;6.72;;
21999;SDS011;11164;48.818;2.322;2023-02-04T06:23:34;14.98;;;6.65;;
21999;SDS011;11164;48.818;2.322;2023-02-04T06:26:00;17.73;;;6.35;;
21999;SDS011;11164;48.818;2.322;2023-02-04T06:28:26;16.80;;;6.40;;
21999;SDS011;11164;48.818;2.322;2023-02-04T06:30:51;21.40;;;7.28;;
21999;SDS011;11164;48.818;2.322;2023-02-04T06:33:17;17.60;;;6.32;;
21999;SDS011;11164;48.818;2.322;2023-02-04T06:35:42;18.52;;;6.65;;
21999;SDS011;11164;48.818;2.322;2023-02-04T06:38:08;19.98;;;6.68;;
21999;SDS011;11164;48.818;2.322;2023-02-04T06:40:33;14.48;;;6.97;;
21999;SDS011;11164;48.818;2.322;2023-02-04T06:42:59;16.27;;;7.55;;
21999;SDS011;11164;48.818;2.322;2023-02-04T06:45:24;16.83;;;6.85;;
21999;SDS011;11164;48.818;2.322;2023-02-04T06:47:49;16.83;;;7.43;;
21999;SDS011;11164;48.818;2.322;2023-02-04T06:50:15;17.67;;;6.80;;
21999;SDS011;11164;48.818;2.322;2023-02-04T06:52:45;18.08;;;7.80;;
21999;SDS011;11164;48.818;2.322;2023-02-04T06:55:12;14.63;;;6.43;;
21999;SDS011;11164;48.818;2.322;2023-02-04T06:57:38;15.63;;;6.78;;
21999;SDS011;11164;48.818;2.322;2023-02-04T07:00:04;15.48;;;7.60;;
21999;SDS011;11164;48.818;2.322;2023-02-04T07:02:33;19.02;;;7.50;;
21999;SDS011;11164;48.818;2.322;2023-02-04T07:04:59;16.13;;;7.60;;
21999;SDS011;11164;48.818;2.322;2023-02-04T07:07:25;19.05;;;7.53;;
21999;SDS011;11164;48.818;2.322;2023-02-04T07:09:51;17.13;;;7.82;;
21999;SDS011;11164;48.818;2.322;2023-02-04T07:12:16;17.70;;;7.90;;
21999;SDS011;11164;48.818;2.322;2023-02-04T07:14:42;16.88;;;7.80;;
21999;SDS011;11164;48.818;2.322;2023-02-04T07:17:07;20.15;;;7.68;;
21999;SDS011;11164;48.818;2.322;2023-02-04T07:19:33;16.45;;;7.40;;
21999;SDS011;11164;48.818;2.322;2023-02-04T07:21:59;18.77;;;7.72;;
21999;SDS011;11164;48.818;2.322;2023-02-04T07:24:24;18.27;;;7.90;;
21999;SDS011;11164;48.818;2.322;2023-02-04T07:26:50;16.63;;;8.25;;
21999;SDS011;11164;48.818;2.322;2023-02-04T07:29:15;14.93;;;7.15;;
21999;SDS011;11164;48.818;2.322;2023-02-04T07:31:42;15.88;;;7.82;;
21999;SDS011;11164;48.818;2.322;2023-02-04T07:34:09;18.05;;;7.82;;
21999;SDS011;11164;48.818;2.322;2023-02-04T07:36:35;17.40;;;7.35;;
21999;SDS011;11164;48.818;2.322;2023-02-04T07:39:01;16.17;;;7.60;;
21999;SDS011;11164;48.818;2.322;2023-02-04T07:41:26;20.80;;;8.48;;
21999;SDS011;11164;48.818;2.322;2023-02-04T07:43:51;17.33;;;7.90;;
21999;SDS011;11164;48.818;2.322;2023-02-04T07:46:17;20.35;;;8.80;;
21999;SDS011;11164;48.818;2.322;2023-02-04T07:48:42;15.32;;;7.93;;
21999;SDS011;11164;48.818;2.322;2023-02-04T07:51:07;16.48;;;8.77;;
21999;SDS011;11164;48.818;2.322;2023-02-04T07:53:34;20.27;;;8.85;;
21999;SDS011;11164;48.818;2.322;2023-02-04T07:55:59;21.67;;;7.90;;
21999;SDS011;11164;48.818;2.322;2023-02-04T07:58:25;20.75;;;8.20;;
21999;SDS011;11164;48.818;2.322;2023-02-04T08:00:50;24.45;;;8.38;;
21999;SDS011;11164;48.818;2.322;2023-02-04T08:03:15;17.92;;;8.15;;
21999;SDS011;11164;48.818;2.322;2023-02-04T08:05:41;16.00;;;8.45;;
21999;SDS011;11164;48.818;2.322;2023-02-04T08:08:06;16.77;;;8.13;;
21999;SDS011;11164;48.818;2.322;2023-02-04T08:10:32;16.08;;;7.57;;
21999;SDS011;11164;48.818;2.322;2023-02-04T08:12:57;20.98;;;8.27;;
21999;SDS011;11164;48.818;2.322;2023-02-04T08:15:22;18.35;;;8.43;;
21999;SDS011;11164;48.818;2.322;2023-02-04T08:17:48;17.77;;;8.93;;
21999;SDS011;11164;48.818;2.322;2023-02-04T08:20:13;22.20;;;8.77;;
21999;SDS011;11164;48.818;2.322;2023-02-04T08:22:39;14.32;;;8.32;;
21999;SDS011;11164;48.818;2.322;2023-02-04T08:25:04;21.88;;;8.73;;
21999;SDS011;11164;48.818;2.322;2023-02-04T08:27:30;17.40;;;8.07;;
21999;SDS011;11164;48.818;2.322;2023-02-04T08:29:55;19.88;;;8.02;;
21999;SDS011;11164;48.818;2.322;2023-02-04T08:32:20;19.42;;;8.43;;
21999;SDS011;11164;48.818;2.322;2023-02-04T08:34:46;15.75;;;7.85;;
21999;SDS011;11164;48.818;2.322;2023-02-04T08:37:12;21.30;;;8.85;;
21999;SDS011;11164;48.818;2.322;2023-02-04T08:39:38;18.75;;;8.77;;
21999;SDS011;11164;48.818;2.322;2023-02-04T08:42:08;21.08;;;8.98;;
21999;SDS011;11164;48.818;2.322;2023-02-04T08:44:33;18.77;;;8.98;;
21999;SDS011;11164;48.818;2.322;2023-02-04T08:46:59;17.25;;;8.60;;
21999;SDS011;11164;48.818;2.322;2023-02-04T08:49:24;18.60;;;8.05;;
21999;SDS011;11164;48.818;2.322;2023-02-04T08:51:49;16.02;;;8.25;;
21999;SDS011;11164;48.818;2.322;2023-02-04T08:54:15;22.88;;;9.40;;
21999;SDS011;11164;48.818;2.322;2023-02-04T08:56:40;17.67;;;8.38;;
21999;SDS011;11164;48.818;2.322;2023-02-04T08:59:05;20.58;;;9.05;;
21999;SDS011;11164;48.818;2.322;2023-02-04T09:01:31;19.00;;;9.20;;
21999;SDS011;11164;48.818;2.322;2023-02-04T09:03:56;17.40;;;8.30;;
21999;SDS011;11164;48.818;2.322;2023-02-04T09:06:21;21.20;;;9.02;;
21999;SDS011;11164;48.818;2.322;2023-02-04T09:08:47;16.33;;;8.32;;
21999;SDS011;11164;48.818;2.322;2023-02-04T09:11:12;21.60;;;8.85;;
21999;SDS011;11164;48.818;2.322;2023-02-04T09:13:38;13.38;;;7.30;;
21999;SDS011;11164;48.818;2.322;2023-02-04T09:16:04;16.73;;;7.80;;
21999;SDS011;11164;48.818;2.322;2023-02-04T09:18:30;14.30;;;7.60;;
21999;SDS011;11164;48.818;2.322;2023-02-04T09:20:56;15.05;;;7.82;;
21999;SDS011;11164;48.818;2.322;2023-02-04T09:23:22;18.67;;;8.90;;
21999;SDS011;11164;48.818;2.322;2023-02-04T09:25:48;18.40;;;7.22;;
21999;SDS011;11164;48.818;2.322;2023-02-04T09:28:13;17.20;;;8.23;;
21999;SDS011;11164;48.818;2.322;2023-02-04T09:30:41;13.15;;;7.28;;
21999;SDS011;11164;48.818;2.322;2023-02-04T09:33:08;14.00;;;7.35;;
21999;SDS011;11164;48.818;2.322;2023-02-04T09:35:35;14.27;;;7.25;;
21999;SDS011;11164;48.818;2.322;2023-02-04T09:38:00;13.75;;;7.30;;
21999;SDS011;11164;48.818;2.322;2023-02-04T09:40:26;14.13;;;7.00;;
21999;SDS011;11164;48.818;2.322;2023-02-04T09:42:54;14.75;;;6.68;;
21999;SDS011;11164;48.818;2.322;2023-02-04T09:45:21;16.27;;;7.68;;
21999;SDS011;11164;48.818;2.322;2023-02-04T09:47:50;14.13;;;7.82;;
21999;SDS011;11164;48.818;2.322;2023-02-04T09:50:18;16.42;;;7.63;;
21999;SDS011;11164;48.818;2.322;2023-02-04T09:52:46;14.70;;;7.35;;
21999;SDS011;11164;48.818;2.322;2023-02-04T09:55:14;12.60;;;7.20;;
21999;SDS011;11164;48.818;2.322;2023-02-04T09:57:41;49.20;;;28.65;;
21999;SDS011;11164;48.818;2.322;2023-02-04T10:00:17;14.00;;;7.30;;
21999;SDS011;11164;48.818;2.322;2023-02-04T10:02:45;14.38;;;7.85;;
21999;SDS011;11164;48.818;2.322;2023-02-04T10:05:18;14.20;;;6.65;;
21999;SDS011;11164;48.818;2.322;2023-02-04T10:07:51;12.48;;;5.88;;
21999;SDS011;11164;48.818;2.322;2023-02-04T10:10:20;11.88;;;5.57;;
21999;SDS011;11164;48.818;2.322;2023-02-04T10:12:49;31.67;;;18.33;;
21999;SDS011;11164;48.818;2.322;2023-02-04T10:15:16;39.85;;;23.45;;
21999;SDS011;11164;48.818;2.322;2023-02-04T10:17:51;10.20;;;5.35;;
21999;SDS011;11164;48.818;2.322;2023-02-04T10:20:21;9.45;;;4.78;;
21999;SDS011;11164;48.818;2.322;2023-02-04T10:22:48;7.40;;;3.92;;
21999;SDS011;11164;48.818;2.322;2023-02-04T10:25:17;8.88;;;4.18;;
21999;SDS011;11164;48.818;2.322;2023-02-04T10:27:48;8.98;;;4.22;;
21999;SDS011;11164;48.818;2.322;2023-02-04T10:30:22;8.20;;;4.60;;
21999;SDS011;11164;48.818;2.322;2023-02-04T10:32:50;7.68;;;4.53;;
21999;SDS011;11164;48.818;2.322;2023-02-04T10:35:17;12.73;;;4.88;;
21999;SDS011;11164;48.818;2.322;2023-02-04T10:37:44;11.75;;;4.88;;
21999;SDS011;11164;48.818;2.322;2023-02-04T10:40:26;11.48;;;5.63;;
21999;SDS011;11164;48.818;2.322;2023-02-04T10:42:52;8.98;;;5.70;;
21999;SDS011;11164;48.818;2.322;2023-02-04T10:45:21;10.57;;;5.45;;
21999;SDS011;11164;48.818;2.322;2023-02-04T10:47:51;10.35;;;5.60;;
21999;SDS011;11164;48.818;2.322;2023-02-04T10:50:19;10.23;;;6.10;;
21999;SDS011;11164;48.818;2.322;2023-02-04T10:52:47;12.30;;;6.22;;
21999;SDS011;11164;48.818;2.322;2023-02-04T10:55:17;10.18;;;5.63;;
21999;SDS011;11164;48.818;2.322;2023-02-04T10:57:45;10.98;;;6.25;;
21999;SDS011;11164;48.818;2.322;2023-02-04T11:00:16;14.23;;;7.80;;
21999;SDS011;11164;48.818;2.322;2023-02-04T11:05:30;11.20;;;6.43;;
21999;SDS011;11164;48.818;2.322;2023-02-04T11:07:57;12.40;;;7.30;;
21999;SDS011;11164;48.818;2.322;2023-02-04T11:10:24;19.02;;;7.55;;
21999;SDS011;11164;48.818;2.322;2023-02-04T11:15:41;11.60;;;7.07;;
21999;SDS011;11164;48.818;2.322;2023-02-04T11:18:29;10.93;;;7.05;;
21999;SDS011;11164;48.818;2.322;2023-02-04T11:20:55;13.48;;;7.60;;
21999;SDS011;11164;48.818;2.322;2023-02-04T11:23:31;14.32;;;8.05;;
21999;SDS011;11164;48.818;2.322;2023-02-04T11:26:11;12.40;;;7.82;;
21999;SDS011;11164;48.818;2.322;2023-02-04T11:33:46;14.35;;;7.60;;
21999;SDS011;11164;48.818;2.322;2023-02-04T11:36:12;12.50;;;7.45;;
21999;SDS011;11164;48.818;2.322;2023-02-04T11:38:44;11.95;;;7.47;;
21999;SDS011;11164;48.818;2.322;2023-02-04T11:41:22;9.48;;;6.40;;
21999;SDS011;11164;48.818;2.322;2023-02-04T11:43:52;13.02;;;7.10;;
21999;SDS011;11164;48.818;2.322;2023-02-04T11:46:19;10.40;;;6.70;;
21999;SDS011;11164;48.818;2.322;2023-02-04T11:48:44;11.63;;;7.32;;
21999;SDS011;11164;48.818;2.322;2023-02-04T11:51:12;11.20;;;7.55;;
21999;SDS011;11164;48.818;2.322;2023-02-04T11:53:40;14.75;;;7.75;;
21999;SDS011;11164;48.818;2.322;2023-02-04T11:56:06;11.57;;;7.53;;
21999;SDS011;11164;48.818;2.322;2023-02-04T11:58:38;14.63;;;9.70;;
21999;SDS011;11164;48.818;2.322;2023-02-04T12:01:15;12.05;;;8.07;;
21999;SDS011;11164;48.818;2.322;2023-02-04T12:03:58;11.43;;;7.28;;
21999;SDS011;11164;48.818;2.322;2023-02-04T12:06:27;10.10;;;6.55;;
21999;SDS011;11164;48.818;2.322;2023-02-04T12:09:06;13.15;;;7.43;;
21999;SDS011;11164;48.818;2.322;2023-02-04T12:11:33;12.43;;;7.85;;
21999;SDS011;11164;48.818;2.322;2023-02-04T12:14:06;11.93;;;7.50;;
21999;SDS011;11164;48.818;2.322;2023-02-04T12:16:40;12.10;;;8.07;;
21999;SDS011;11164;48.818;2.322;2023-02-04T12:19:08;12.98;;;8.30;;
21999;SDS011;11164;48.818;2.322;2023-02-04T12:21:33;11.98;;;8.10;;
21999;SDS011;11164;48.818;2.322;2023-02-04T12:23:59;13.20;;;8.10;;
21999;SDS011;11164;48.818;2.322;2023-02-04T12:26:24;14.02;;;8.57;;
21999;SDS011;11164;48.818;2.322;2023-02-04T12:28:49;16.45;;;8.88;;
21999;SDS011;11164;48.818;2.322;2023-02-04T12:31:15;12.48;;;8.90;;
21999;SDS011;11164;48.818;2.322;2023-02-04T12:33:40;13.95;;;9.02;;
21999;SDS011;11164;48.818;2.322;2023-02-04T12:36:05;14.73;;;8.90;;
21999;SDS011;11164;48.818;2.322;2023-02-04T12:38:31;16.52;;;9.80;;
21999;SDS011;11164;48.818;2.322;2023-02-04T12:40:57;16.95;;;9.30;;
21999;SDS011;11164;48.818;2.322;2023-02-04T12:43:22;14.23;;;7.95;;
21999;SDS011;11164;48.818;2.322;2023-02-04T12:45:48;16.60;;;8.10;;
21999;SDS011;11164;48.818;2.322;2023-02-04T12:48:14;17.55;;;8.70;;
21999;SDS011;11164;48.818;2.322;2023-02-04T12:50:39;14.07;;;7.32;;
21999;SDS011;11164;48.818;2.322;2023-02-04T12:53:05;12.07;;;7.47;;
21999;SDS011;11164;48.818;2.322;2023-02-04T12:55:30;14.18;;;7.07;;
21999;SDS011;11164;48.818;2.322;2023-02-04T12:57:56;11.40;;;6.78;;
21999;SDS011;11164;48.818;2.322;2023-02-04T13:00:21;11.68;;;6.18;;
21999;SDS011;11164;48.818;2.322;2023-02-04T13:02:47;10.55;;;6.00;;
21999;SDS011;11164;48.818;2.322;2023-02-04T13:05:13;11.45;;;6.10;;
21999;SDS011;11164;48.818;2.322;2023-02-04T13:07:40;10.35;;;5.72;;
21999;SDS011;11164;48.818;2.322;2023-02-04T13:10:06;9.60;;;6.10;;
21999;SDS011;11164;48.818;2.322;2023-02-04T13:12:33;12.15;;;6.20;;
21999;SDS011;11164;48.818;2.322;2023-02-04T13:14:59;8.98;;;4.80;;
21999;SDS011;11164;48.818;2.322;2023-02-04T13:17:24;8.73;;;4.80;;
21999;SDS011;11164;48.818;2.322;2023-02-04T13:19:49;7.55;;;4.00;;
21999;SDS011;11164;48.818;2.322;2023-02-04T13:22:15;7.60;;;3.75;;
21999;SDS011;11164;48.818;2.322;2023-02-04T13:24:49;7.63;;;3.90;;
21999;SDS011;11164;48.818;2.322;2023-02-04T13:27:14;6.47;;;3.85;;
21999;SDS011;11164;48.818;2.322;2023-02-04T13:29:40;6.75;;;4.18;;
21999;SDS011;11164;48.818;2.322;2023-02-04T13:32:05;8.80;;;4.43;;
21999;SDS011;11164;48.818;2.322;2023-02-04T13:34:31;8.43;;;3.30;;
21999;SDS011;11164;48.818;2.322;2023-02-04T13:36:56;10.43;;;4.43;;
21999;SDS011;11164;48.818;2.322;2023-02-04T13:39:21;7.78;;;3.97;;
21999;SDS011;11164;48.818;2.322;2023-02-04T13:41:47;8.65;;;4.28;;
21999;SDS011;11164;48.818;2.322;2023-02-04T13:44:13;6.80;;;3.40;;
21999;SDS011;11164;48.818;2.322;2023-02-04T13:46:39;9.02;;;4.03;;
21999;SDS011;11164;48.818;2.322;2023-02-04T13:49:04;8.95;;;4.30;;
21999;SDS011;11164;48.818;2.322;2023-02-04T13:51:29;9.70;;;5.20;;
21999;SDS011;11164;48.818;2.322;2023-02-04T13:53:55;8.65;;;4.88;;
21999;SDS011;11164;48.818;2.322;2023-02-04T13:56:20;10.07;;;4.93;;
21999;SDS011;11164;48.818;2.322;2023-02-04T13:58:46;8.85;;;4.70;;
21999;SDS011;11164;48.818;2.322;2023-02-04T14:01:12;8.48;;;4.32;;
21999;SDS011;11164;48.818;2.322;2023-02-04T14:03:38;9.43;;;5.82;;
21999;SDS011;11164;48.818;2.322;2023-02-04T14:06:06;10.70;;;4.82;;
21999;SDS011;11164;48.818;2.322;2023-02-04T14:08:32;9.73;;;4.82;;
21999;SDS011;11164;48.818;2.322;2023-02-04T14:10:57;8.48;;;5.13;;
21999;SDS011;11164;48.818;2.322;2023-02-04T14:13:23;10.75;;;5.50;;
21999;SDS011;11164;48.818;2.322;2023-02-04T14:15:48;9.90;;;5.65;;
21999;SDS011;11164;48.818;2.322;2023-02-04T14:18:14;8.55;;;4.95;;
21999;SDS011;11164;48.818;2.322;2023-02-04T14:20:42;8.90;;;5.82;;
21999;SDS011;11164;48.818;2.322;2023-02-04T14:23:08;9.60;;;5.20;;
21999;SDS011;11164;48.818;2.322;2023-02-04T14:25:35;8.90;;;4.88;;
21999;SDS011;11164;48.818;2.322;2023-02-04T14:28:01;9.38;;;4.88;;
21999;SDS011;11164;48.818;2.322;2023-02-04T14:30:28;10.30;;;5.38;;
21999;SDS011;11164;48.818;2.322;2023-02-04T14:32:54;10.98;;;6.07;;
21999;SDS011;11164;48.818;2.322;2023-02-04T14:35:20;8.75;;;5.63;;
21999;SDS011;11164;48.818;2.322;2023-02-04T14:37:46;9.93;;;5.43;;
21999;SDS011;11164;48.818;2.322;2023-02-04T14:40:12;9.95;;;5.55;;
21999;SDS011;11164;48.818;2.322;2023-02-04T14:42:39;7.53;;;4.80;;